KLJ weather

Klaipėda Airport
Klaipėda, Klaipėda County, Lithuania

Public forecast

Using degrees Celsius for public forecast. Weather courtesy of forecast.io.

Closest aviation weather report (METAR) to Klaipėda Airport

Closest report is Palanga International Airport, 16.5 nm (30.5 km) NNW. Retrieved 2019/10/19 14:20 UTC (0 seconds ago):

EYPA 191420Z 20005KT 9999 FEW011 BKN130 13/11 Q1013

Closest aviation forecast (TAF) to Klaipėda Airport

Closest forecast is Palanga International Airport, 16.5 nm (30.5 km) NNW. Retrieved 2019/10/19 12:50 UTC (1 hour ago):

TAF COR EYPA 191145Z 1912/2012 VRB05KT 9000 SCT010 TEMPO 1918/1921 3000 MIFG BR TEMPO 1921/2003 1500 BR SCT003